Time;durP1;ratioP1;P1;durP2;ratioP2;P2;SDS_P1;SDS_P2;PMS_P1;PMS_P2;Temp;Humidity;BMP_temperature;BMP_pressure;BME280_temperature;BME280_humidity;BME280_pressure;Samples;Min_cycle;Max_cycle;Signal;HPM_P1;HPM_P2
2023/03/10 00:02:27;;;;;;;1.27;0.60;;;12.50;99.90;;;;;;5011325;28;20309;-75
2023/03/10 00:04:53;;;;;;;1.47;0.50;;;12.50;99.90;;;;;;5012855;28;20558;-75
2023/03/10 00:07:20;;;;;;;1.70;0.70;;;12.60;99.90;;;;;;5012849;28;20661;-75
2023/03/10 00:09:46;;;;;;;1.67;0.50;;;12.60;99.90;;;;;;5013176;28;20566;-75
2023/03/10 00:12:12;;;;;;;4.70;0.80;;;12.60;99.90;;;;;;5010659;28;20639;-75
2023/03/10 00:14:38;;;;;;;2.93;0.70;;;12.60;99.90;;;;;;5011610;28;20604;-76
2023/03/10 00:17:05;;;;;;;2.27;0.60;;;12.60;99.90;;;;;;5012282;28;20574;-76
2023/03/10 00:19:31;;;;;;;1.67;0.60;;;12.60;99.90;;;;;;5008683;28;20663;-76
2023/03/10 00:21:56;;;;;;;2.77;0.57;;;12.60;99.90;;;;;;5025856;28;21343;-76
2023/03/10 00:24:22;;;;;;;1.53;0.60;;;12.60;99.90;;;;;;5030914;28;20261;-75
2023/03/10 00:26:49;;;;;;;1.93;0.40;;;12.60;99.90;;;;;;5032317;28;20672;-75
2023/03/10 00:29:15;;;;;;;2.13;0.50;;;12.60;99.90;;;;;;5030296;28;20205;-75
2023/03/10 00:31:41;;;;;;;1.33;0.60;;;12.60;99.90;;;;;;5014361;28;20596;-75
2023/03/10 00:34:07;;;;;;;1.20;0.50;;;12.60;99.90;;;;;;5030609;28;20699;-75
2023/03/10 00:36:33;;;;;;;1.60;0.87;;;12.60;99.90;;;;;;5030916;28;20580;-76
2023/03/10 00:39:00;;;;;;;1.70;0.60;;;12.60;99.90;;;;;;5023282;28;20693;-75
2023/03/10 00:41:32;;;;;;;1.20;0.50;;;12.60;99.90;;;;;;4994857;28;20597;-74
2023/03/10 00:43:59;;;;;;;1.33;0.60;;;12.60;99.90;;;;;;5026916;28;20654;-75
2023/03/10 00:46:26;;;;;;;1.53;0.47;;;12.60;99.90;;;;;;5012249;28;20965;-75
2023/03/10 00:48:52;;;;;;;1.20;0.50;;;12.60;99.90;;;;;;5027452;28;21195;-75
2023/03/10 00:51:19;;;;;;;1.23;0.60;;;12.60;99.90;;;;;;4994091;28;20592;-74
2023/03/10 00:53:46;;;;;;;1.30;0.50;;;12.60;99.90;;;;;;4994182;28;20612;-74
2023/03/10 00:56:23;;;;;;;1.20;0.43;;;12.60;99.90;;;;;;5010447;28;20663;-75
2023/03/10 00:58:51;;;;;;;1.20;0.40;;;12.60;99.90;;;;;;5010905;28;20617;-75
2023/03/10 01:01:29;;;;;;;2.10;0.90;;;12.60;99.90;;;;;;5011599;28;20566;-75
2023/03/10 01:03:58;;;;;;;1.10;0.50;;;12.60;99.90;;;;;;5026952;28;21211;-74
2023/03/10 01:06:25;;;;;;;1.10;0.40;;;12.60;99.90;;;;;;5026965;28;20171;-74
2023/03/10 01:08:51;;;;;;;1.10;0.43;;;12.60;99.90;;;;;;4994308;28;20797;-74
2023/03/10 01:11:19;;;;;;;1.90;0.50;;;12.70;99.90;;;;;;5010425;28;20576;-74
2023/03/10 01:13:45;;;;;;;1.40;0.50;;;12.70;99.90;;;;;;4993278;28;20651;-75
2023/03/10 01:16:12;;;;;;;1.20;0.60;;;12.70;99.90;;;;;;5010485;28;21151;-73
2023/03/10 01:18:38;;;;;;;1.48;0.60;;;12.70;99.90;;;;;;5011036;28;20201;-74
2023/03/10 01:21:05;;;;;;;1.20;0.50;;;12.70;99.90;;;;;;5021149;28;20181;-73
2023/03/10 01:23:31;;;;;;;2.53;0.50;;;12.70;99.90;;;;;;5045975;28;20636;-73
2023/03/10 01:25:57;;;;;;;1.80;0.60;;;12.70;99.90;;;;;;5031517;28;20580;-73
2023/03/10 01:28:23;;;;;;;1.30;0.50;;;12.70;99.90;;;;;;5012458;28;20205;-73
2023/03/10 01:30:49;;;;;;;1.30;0.40;;;12.70;99.90;;;;;;5031070;28;20575;-72
2023/03/10 01:33:16;;;;;;;1.70;0.50;;;12.80;99.90;;;;;;5029661;28;20589;-71
2023/03/10 01:35:42;;;;;;;1.10;0.40;;;12.80;99.90;;;;;;5029622;28;20639;-72
2023/03/10 01:38:10;;;;;;;1.10;0.50;;;12.80;99.90;;;;;;5011987;28;20635;-72
2023/03/10 01:40:36;;;;;;;1.13;0.53;;;12.80;99.90;;;;;;5009836;28;20569;-71
2023/03/10 01:43:32;;;;;;;1.10;0.40;;;12.80;99.90;;;;;;5009947;28;20197;-73
2023/03/10 01:46:00;;;;;;;1.37;0.50;;;12.80;99.90;;;;;;5009720;28;20555;-73
2023/03/10 01:48:34;;;;;;;1.50;0.50;;;12.80;99.90;;;;;;5009986;28;20624;-73
2023/03/10 01:51:00;;;;;;;1.27;0.50;;;12.90;99.90;;;;;;5009036;28;20620;-72
2023/03/10 01:53:28;;;;;;;1.20;0.50;;;12.90;99.90;;;;;;4993405;28;20676;-73
2023/03/10 01:55:58;;;;;;;1.30;0.70;;;12.90;99.90;;;;;;4993939;28;20325;-72
2023/03/10 01:58:26;;;;;;;1.30;0.60;;;12.90;99.90;;;;;;5009382;28;20656;-72
2023/03/10 02:00:53;;;;;;;1.20;0.50;;;12.90;99.90;;;;;;5011326;28;20593;-71
2023/03/10 02:03:25;;;;;;;1.50;0.50;;;12.90;99.90;;;;;;4991439;28;20641;-71
2023/03/10 02:05:57;;;;;;;1.15;0.50;;;12.90;99.90;;;;;;5010208;28;21143;-72
2023/03/10 02:08:25;;;;;;;1.10;0.50;;;12.80;99.90;;;;;;5009505;28;20205;-72
2023/03/10 02:10:51;;;;;;;2.07;0.50;;;12.90;99.90;;;;;;5014576;28;20589;-73
2023/03/10 02:13:17;;;;;;;1.10;0.40;;;12.80;99.90;;;;;;5012499;28;20612;-76
2023/03/10 02:15:44;;;;;;;1.20;0.50;;;12.80;99.90;;;;;;5000671;28;20624;-76
2023/03/10 02:18:13;;;;;;;1.10;0.50;;;12.80;99.90;;;;;;5027180;28;20647;-76
2023/03/10 02:21:16;;;;;;;1.00;0.40;;;12.80;99.90;;;;;;5005396;28;20616;-73
2023/03/10 02:24:21;;;;;;;1.10;0.40;;;12.80;99.90;;;;;;4995710;28;20663;-73
2023/03/10 02:27:05;;;;;;;1.13;0.50;;;12.80;99.90;;;;;;5029433;28;20596;-73
2023/03/10 02:29:42;;;;;;;1.20;0.50;;;12.80;99.90;;;;;;5022046;28;20686;-73
2023/03/10 02:32:10;;;;;;;1.10;0.43;;;12.70;99.90;;;;;;5012378;28;20169;-73
2023/03/10 02:34:35;;;;;;;1.20;0.40;;;12.70;99.90;;;;;;5029322;28;20650;-73
2023/03/10 02:37:01;;;;;;;1.53;0.40;;;12.70;99.90;;;;;;5030205;28;20645;-73
2023/03/10 02:39:28;;;;;;;1.73;0.50;;;12.70;99.90;;;;;;5014800;28;20239;-74
2023/03/10 02:41:54;;;;;;;2.60;0.50;;;12.70;99.90;;;;;;5016085;28;20967;-73
2023/03/10 02:44:23;;;;;;;1.40;0.60;;;12.70;99.90;;;;;;5033129;28;20198;-73
2023/03/10 02:46:50;;;;;;;6.40;1.43;;;12.70;99.90;;;;;;5026776;28;20572;-74
2023/03/10 02:49:17;;;;;;;2.30;0.50;;;12.70;99.90;;;;;;5032868;28;20611;-75
2023/03/10 02:51:46;;;;;;;1.45;0.60;;;12.70;99.90;;;;;;5049324;28;20590;-75
2023/03/10 02:54:14;;;;;;;3.58;0.50;;;12.70;99.90;;;;;;5048994;28;20731;-75
2023/03/10 02:56:41;;;;;;;2.25;0.73;;;12.70;99.90;;;;;;5016438;28;20174;-75
2023/03/10 02:59:09;;;;;;;1.93;0.50;;;12.60;99.90;;;;;;5015840;28;20200;-75
2023/03/10 03:01:37;;;;;;;3.70;0.70;;;12.60;99.90;;;;;;5015941;28;20596;-75
2023/03/10 03:04:04;;;;;;;3.93;0.70;;;12.60;99.90;;;;;;5015766;28;21416;-75
2023/03/10 03:06:30;;;;;;;5.63;0.93;;;12.60;99.90;;;;;;5016230;28;20575;-75
2023/03/10 03:08:56;;;;;;;4.03;0.80;;;12.50;99.90;;;;;;5015569;28;20189;-75
2023/03/10 03:11:24;;;;;;;3.88;0.90;;;12.50;99.90;;;;;;5016076;28;20174;-75
2023/03/10 03:13:51;;;;;;;3.77;0.80;;;12.50;99.90;;;;;;5015638;28;20170;-75
2023/03/10 03:16:17;;;;;;;2.33;0.93;;;12.50;99.90;;;;;;5048799;28;21275;-75
2023/03/10 03:18:45;;;;;;;4.30;0.77;;;12.50;99.90;;;;;;5048978;28;20276;-74
2023/03/10 03:21:16;;;;;;;2.30;0.80;;;12.50;99.90;;;;;;5012501;28;20600;-75
2023/03/10 03:23:44;;;;;;;2.00;0.70;;;12.50;99.90;;;;;;5012132;28;20629;-75
2023/03/10 03:26:20;;;;;;;3.50;0.93;;;12.40;99.90;;;;;;4995755;28;20584;-74
2023/03/10 03:28:46;;;;;;;6.57;2.47;;;12.40;99.90;;;;;;5012367;28;20632;-74
2023/03/10 03:31:15;;;;;;;3.50;0.60;;;12.40;99.90;;;;;;4995669;28;20178;-74
2023/03/10 03:33:42;;;;;;;8.40;1.27;;;12.40;99.90;;;;;;5012237;28;20931;-74
2023/03/10 03:36:09;;;;;;;3.65;1.10;;;12.40;99.90;;;;;;5012239;28;20582;-75
2023/03/10 03:38:35;;;;;;;2.70;0.80;;;12.40;99.90;;;;;;5013267;28;20598;-75
2023/03/10 03:41:01;;;;;;;5.80;1.00;;;12.30;99.90;;;;;;5012301;28;20723;-75
2023/03/10 03:43:28;;;;;;;3.25;0.90;;;12.40;99.90;;;;;;5011399;28;20633;-75
2023/03/10 03:45:55;;;;;;;2.03;0.80;;;12.30;99.90;;;;;;4995987;28;20194;-75
2023/03/10 03:48:21;;;;;;;5.10;0.90;;;12.30;99.90;;;;;;5013092;28;21027;-75
2023/03/10 03:50:47;;;;;;;3.20;0.80;;;12.30;99.90;;;;;;4979070;28;20600;-75
2023/03/10 03:53:21;;;;;;;4.10;0.70;;;12.30;99.90;;;;;;5011423;28;20585;-75
2023/03/10 03:55:49;;;;;;;4.50;1.13;;;12.30;99.90;;;;;;5012113;28;20592;-76
2023/03/10 03:58:18;;;;;;;3.03;0.57;;;12.20;99.90;;;;;;5011925;28;20198;-76
2023/03/10 04:00:43;;;;;;;2.20;1.00;;;12.20;99.90;;;;;;4995314;28;20174;-75
2023/03/10 04:03:09;;;;;;;2.90;0.70;;;12.20;99.90;;;;;;4995193;28;20580;-75
2023/03/10 04:05:36;;;;;;;4.50;0.80;;;12.10;99.90;;;;;;4995169;28;20626;-76
2023/03/10 04:08:02;;;;;;;2.80;1.17;;;12.20;99.90;;;;;;5012943;28;20612;-76
2023/03/10 04:10:29;;;;;;;2.17;0.60;;;12.10;99.90;;;;;;4978975;28;20181;-76
2023/03/10 04:12:56;;;;;;;1.57;0.50;;;12.10;99.90;;;;;;4994893;28;20654;-76
2023/03/10 04:15:23;;;;;;;2.37;0.70;;;12.10;99.90;;;;;;4995089;28;20597;-76
2023/03/10 04:17:49;;;;;;;3.67;0.70;;;12.00;99.90;;;;;;5010358;28;20637;-76
2023/03/10 04:20:16;;;;;;;2.67;0.80;;;12.00;99.90;;;;;;4995483;28;20237;-75
2023/03/10 04:22:45;;;;;;;3.87;0.80;;;12.00;99.90;;;;;;5031786;28;20674;-75
2023/03/10 04:25:12;;;;;;;2.10;0.70;;;11.90;99.90;;;;;;5031297;28;20565;-75
2023/03/10 04:27:38;;;;;;;6.40;1.07;;;11.90;99.90;;;;;;5030737;28;20608;-75
2023/03/10 04:30:06;;;;;;;1.92;0.65;;;11.90;99.90;;;;;;5031157;28;20588;-75
2023/03/10 04:32:34;;;;;;;1.20;0.50;;;11.90;99.90;;;;;;5013758;28;20174;-75
2023/03/10 04:35:03;;;;;;;2.60;0.80;;;11.80;99.90;;;;;;5032432;28;20181;-76
2023/03/10 04:37:29;;;;;;;3.10;0.60;;;11.80;99.90;;;;;;5030679;28;20178;-76
2023/03/10 04:39:56;;;;;;;2.95;1.02;;;11.80;99.90;;;;;;5014426;28;20173;-76
2023/03/10 04:42:22;;;;;;;3.17;0.70;;;11.80;99.90;;;;;;5030525;28;20682;-75
2023/03/10 04:44:50;;;;;;;2.13;0.70;;;11.70;99.90;;;;;;5013806;28;20166;-75
2023/03/10 04:47:16;;;;;;;1.67;0.60;;;11.70;99.90;;;;;;5030866;28;20174;-75
2023/03/10 04:49:42;;;;;;;2.03;0.60;;;11.60;99.90;;;;;;5030422;28;20177;-76
2023/03/10 04:52:11;;;;;;;2.85;0.82;;;11.60;99.90;;;;;;5013739;28;20577;-75
2023/03/10 04:54:36;;;;;;;2.60;0.70;;;11.60;99.90;;;;;;5031572;28;20311;-76
2023/03/10 04:57:02;;;;;;;2.63;0.80;;;11.50;99.90;;;;;;5014239;28;20197;-75
2023/03/10 04:59:28;;;;;;;3.25;0.70;;;11.50;99.90;;;;;;5030531;28;20634;-75
2023/03/10 05:01:54;;;;;;;5.30;1.00;;;11.50;99.90;;;;;;5012663;28;20169;-75
2023/03/10 05:04:20;;;;;;;3.63;1.00;;;11.50;99.90;;;;;;5013783;28;20666;-75
2023/03/10 05:06:51;;;;;;;3.90;0.90;;;11.50;99.90;;;;;;5029975;28;20639;-74
2023/03/10 05:09:27;;;;;;;3.00;0.70;;;11.50;99.90;;;;;;5030406;28;20197;-75
2023/03/10 05:11:53;;;;;;;2.83;1.00;;;11.60;99.90;;;;;;5011129;28;20224;-75
2023/03/10 05:14:18;;;;;;;2.13;0.87;;;11.60;99.90;;;;;;5010506;28;20619;-75
2023/03/10 05:16:46;;;;;;;2.33;0.87;;;11.60;99.90;;;;;;4993757;28;20261;-74
2023/03/10 05:19:12;;;;;;;2.38;0.70;;;11.60;99.90;;;;;;5026891;28;20288;-75
2023/03/10 05:21:38;;;;;;;4.90;1.50;;;11.60;99.90;;;;;;4993508;28;20265;-75
2023/03/10 05:24:04;;;;;;;2.60;1.00;;;11.60;99.90;;;;;;5010446;28;21036;-75
2023/03/10 05:26:30;;;;;;;6.57;1.10;;;11.70;99.90;;;;;;5010027;28;20240;-75
2023/03/10 05:28:56;;;;;;;4.03;1.00;;;11.70;99.90;;;;;;5009494;28;20210;-75
2023/03/10 05:31:35;;;;;;;5.72;1.10;;;11.70;99.90;;;;;;4994124;28;20182;-75
2023/03/10 05:34:08;;;;;;;6.40;1.23;;;11.80;99.90;;;;;;5009918;28;20189;-76
2023/03/10 05:36:34;;;;;;;3.35;1.00;;;11.80;99.90;;;;;;5010359;28;20650;-75
2023/03/10 05:39:04;;;;;;;5.23;1.00;;;11.80;99.90;;;;;;5009575;28;20575;-75
2023/03/10 05:41:32;;;;;;;4.25;1.08;;;11.80;99.90;;;;;;5010110;28;20585;-75
2023/03/10 05:43:58;;;;;;;3.50;1.25;;;11.80;99.90;;;;;;4993339;28;20209;-74
2023/03/10 05:46:25;;;;;;;11.90;1.60;;;11.80;99.90;;;;;;5008743;28;20228;-74
2023/03/10 05:48:55;;;;;;;2.75;1.25;;;11.90;99.90;;;;;;5017080;28;20197;-74
2023/03/10 05:51:21;;;;;;;3.13;0.90;;;11.80;99.90;;;;;;5010044;28;20277;-74
2023/03/10 05:53:47;;;;;;;2.67;1.10;;;11.90;99.90;;;;;;5007748;28;20182;-74
2023/03/10 05:56:19;;;;;;;8.27;1.15;;;11.90;99.90;;;;;;5008152;28;20182;-77
2023/03/10 05:59:27;;;;;;;;;;;;;;;;;;;;;
2023/03/10 06:02:37;;;;;;;4.35;0.90;;;11.90;99.90;;;;;;5007050;28;20667;-75
2023/03/10 06:05:06;;;;;;;2.45;1.08;;;11.90;99.90;;;;;;5031031;28;20174;-76
2023/03/10 06:07:32;;;;;;;4.53;1.57;;;12.00;99.90;;;;;;5020174;28;20186;-76
2023/03/10 06:09:57;;;;;;;4.68;1.10;;;12.00;99.90;;;;;;5009367;28;20962;-76
2023/03/10 06:12:23;;;;;;;3.77;1.27;;;12.00;99.90;;;;;;5008649;28;20261;-75
2023/03/10 06:14:49;;;;;;;4.07;1.00;;;12.00;99.90;;;;;;4996277;28;20271;-77
2023/03/10 06:17:15;;;;;;;4.13;1.03;;;12.00;99.90;;;;;;5013040;28;21148;-75
2023/03/10 06:19:41;;;;;;;3.33;1.20;;;12.00;99.90;;;;;;5013611;28;20698;-75
2023/03/10 06:22:07;;;;;;;5.60;1.23;;;12.00;99.90;;;;;;5030293;28;20284;-75
2023/03/10 06:24:35;;;;;;;4.13;1.50;;;12.00;99.90;;;;;;5032745;28;20209;-76
2023/03/10 06:27:00;;;;;;;3.22;1.08;;;12.00;99.90;;;;;;5033344;28;20711;-75
2023/03/10 06:29:26;;;;;;;4.97;1.00;;;12.00;99.90;;;;;;5032470;28;20201;-76
2023/03/10 06:31:52;;;;;;;4.03;1.00;;;12.00;99.90;;;;;;5030221;28;20564;-76
2023/03/10 06:34:18;;;;;;;5.17;1.20;;;12.00;99.90;;;;;;4996601;28;20181;-75
2023/03/10 06:36:44;;;;;;;4.87;0.90;;;12.00;99.90;;;;;;5015014;28;20718;-75
2023/03/10 06:39:10;;;;;;;4.30;1.83;;;12.00;99.90;;;;;;5012979;28;20678;-76
2023/03/10 06:41:36;;;;;;;5.33;1.73;;;12.00;99.90;;;;;;5014927;28;20261;-75
2023/03/10 06:44:03;;;;;;;4.75;1.35;;;12.00;99.90;;;;;;5015091;28;20657;-76
2023/03/10 06:46:29;;;;;;;4.53;1.07;;;12.00;99.90;;;;;;4999210;28;20174;-76
2023/03/10 06:48:55;;;;;;;4.30;1.20;;;12.00;99.90;;;;;;5014541;28;20640;-76
2023/03/10 06:51:22;;;;;;;2.40;1.00;;;12.00;99.90;;;;;;5013929;28;20178;-76
2023/03/10 06:53:48;;;;;;;3.85;0.90;;;12.10;99.90;;;;;;5013054;28;20623;-75
2023/03/10 06:56:17;;;;;;;2.50;0.90;;;12.20;99.90;;;;;;5013956;28;20174;-76
2023/03/10 06:58:43;;;;;;;2.10;0.90;;;12.20;99.90;;;;;;5009826;28;20665;-76
2023/03/10 07:01:27;;;;;;;4.93;1.13;;;12.20;99.90;;;;;;4992774;28;20943;-76
2023/03/10 07:03:53;;;;;;;2.30;0.83;;;12.30;99.90;;;;;;4995578;28;20614;-76
2023/03/10 07:06:19;;;;;;;2.80;1.03;;;12.30;99.90;;;;;;5010901;28;20602;-76
2023/03/10 07:08:45;;;;;;;2.00;0.83;;;12.40;99.90;;;;;;5014167;28;20613;-76
2023/03/10 07:11:11;;;;;;;3.47;0.90;;;12.40;99.90;;;;;;5012945;28;20585;-76
2023/03/10 07:13:37;;;;;;;3.00;0.90;;;12.40;99.90;;;;;;5012228;28;20174;-77
2023/03/10 07:16:04;;;;;;;3.00;0.80;;;12.50;99.90;;;;;;5029517;28;20573;-77
2023/03/10 07:18:30;;;;;;;4.37;1.17;;;12.50;99.90;;;;;;5013606;28;20620;-77
2023/03/10 07:20:55;;;;;;;2.23;0.80;;;12.50;99.90;;;;;;5012613;28;21137;-78
2023/03/10 07:23:22;;;;;;;2.13;0.70;;;12.50;99.90;;;;;;5016275;28;20210;-77
2023/03/10 07:25:53;;;;;;;3.10;0.80;;;12.50;99.90;;;;;;5012980;28;20588;-77
2023/03/10 07:28:19;;;;;;;2.70;1.00;;;12.50;99.90;;;;;;5011403;28;20901;-76
2023/03/10 07:30:45;;;;;;;2.17;0.90;;;12.50;99.90;;;;;;5012383;28;20584;-77
2023/03/10 07:33:11;;;;;;;2.57;0.70;;;12.50;99.90;;;;;;5011411;28;21125;-77
2023/03/10 07:35:36;;;;;;;1.70;0.70;;;12.50;99.90;;;;;;5012308;28;20178;-77
2023/03/10 07:38:03;;;;;;;2.47;0.70;;;12.50;99.90;;;;;;5012278;28;20198;-77
2023/03/10 07:40:29;;;;;;;3.00;0.60;;;12.50;99.90;;;;;;5012953;28;20588;-76
2023/03/10 07:42:54;;;;;;;2.10;0.70;;;12.50;99.90;;;;;;5011920;28;21196;-77
2023/03/10 07:45:21;;;;;;;2.50;0.90;;;12.60;99.90;;;;;;5011658;28;20589;-77
2023/03/10 07:47:48;;;;;;;1.50;0.60;;;12.60;99.90;;;;;;5013457;28;20241;-77
2023/03/10 07:50:14;;;;;;;1.43;0.73;;;12.60;99.90;;;;;;5012936;28;21326;-77
2023/03/10 07:52:40;;;;;;;4.40;0.80;;;12.70;99.90;;;;;;5013203;28;20569;-77
2023/03/10 07:55:06;;;;;;;1.97;0.70;;;12.80;99.90;;;;;;5011554;28;20232;-77
2023/03/10 07:57:32;;;;;;;2.10;0.83;;;12.90;99.90;;;;;;5011904;28;20182;-77
2023/03/10 07:59:58;;;;;;;3.40;1.07;;;13.00;99.90;;;;;;5008858;28;21118;-77
2023/03/10 08:02:23;;;;;;;2.10;0.80;;;13.10;99.90;;;;;;5007907;28;20174;-77
2023/03/10 08:04:49;;;;;;;3.10;1.00;;;13.10;99.90;;;;;;5013045;28;20297;-78
2023/03/10 08:07:15;;;;;;;5.90;1.10;;;13.20;99.90;;;;;;5012384;28;20181;-78
2023/03/10 08:09:40;;;;;;;5.53;1.13;;;13.30;99.90;;;;;;5013048;28;20173;-78
2023/03/10 08:12:06;;;;;;;2.43;1.30;;;13.90;99.90;;;;;;5010586;28;20170;-77
2023/03/10 08:14:32;;;;;;;2.30;0.93;;;14.70;99.90;;;;;;5013091;28;20178;-77
2023/03/10 08:16:58;;;;;;;2.37;1.20;;;15.50;99.90;;;;;;5010796;28;20582;-78
2023/03/10 08:19:26;;;;;;;1.60;0.77;;;15.90;99.90;;;;;;5012617;28;20198;-78
2023/03/10 08:21:56;;;;;;;2.17;0.90;;;16.20;99.90;;;;;;5027032;28;20603;-78
2023/03/10 08:24:23;;;;;;;3.83;1.30;;;16.40;99.90;;;;;;5032293;28;20616;-78
2023/03/10 08:26:48;;;;;;;2.53;0.70;;;16.60;99.90;;;;;;5031185;28;21198;-78
2023/03/10 08:29:14;;;;;;;2.90;0.80;;;16.90;99.90;;;;;;5030415;28;20616;-78
2023/03/10 08:31:40;;;;;;;3.90;1.20;;;17.40;99.90;;;;;;5032122;28;20692;-78
2023/03/10 08:34:06;;;;;;;6.23;1.30;;;17.90;99.90;;;;;;5032040;28;20174;-79
2023/03/10 08:36:32;;;;;;;2.87;1.40;;;18.50;99.90;;;;;;5014868;28;20844;-78
2023/03/10 08:39:01;;;;;;;4.67;1.27;;;19.30;99.90;;;;;;4978410;28;20216;-78
2023/03/10 08:41:39;;;;;;;2.43;0.90;;;20.20;99.90;;;;;;5012481;28;20174;-78
2023/03/10 08:44:05;;;;;;;3.33;1.10;;;20.90;99.90;;;;;;5011267;28;21035;-79
2023/03/10 08:46:33;;;;;;;2.93;0.83;;;21.50;99.90;;;;;;5013232;28;20912;-79
2023/03/10 08:48:59;;;;;;;3.03;1.20;;;21.70;99.90;;;;;;5010979;28;20633;-77
2023/03/10 08:51:26;;;;;;;3.90;1.10;;;21.90;99.90;;;;;;4994122;28;20585;-78
2023/03/10 08:53:55;;;;;;;3.90;0.90;;;21.90;99.90;;;;;;5011328;28;20574;-78
2023/03/10 08:56:22;;;;;;;3.93;0.80;;;21.90;99.90;;;;;;5010539;28;21164;-78
2023/03/10 08:58:49;;;;;;;2.47;0.90;;;21.70;99.90;;;;;;5011397;28;20625;-79
2023/03/10 09:01:16;;;;;;;2.60;0.90;;;21.50;99.90;;;;;;5010093;28;20590;-78
2023/03/10 09:03:43;;;;;;;3.27;1.00;;;21.10;99.90;;;;;;5010278;28;21039;-78
2023/03/10 09:06:09;;;;;;;4.33;1.30;;;20.80;99.90;;;;;;5010239;28;20580;-78
2023/03/10 09:08:35;;;;;;;3.47;1.30;;;20.50;99.90;;;;;;5010446;28;20593;-78
2023/03/10 09:11:01;;;;;;;5.33;1.20;;;20.30;99.90;;;;;;5011397;28;20566;-78
2023/03/10 09:13:27;;;;;;;3.87;0.87;;;20.00;99.90;;;;;;5010244;28;20213;-78
2023/03/10 09:15:53;;;;;;;3.83;1.50;;;19.80;99.90;;;;;;5010604;28;20970;-78
2023/03/10 09:18:19;;;;;;;3.70;0.93;;;19.80;99.90;;;;;;5011056;28;20186;-78
2023/03/10 09:20:45;;;;;;;3.20;0.80;;;19.70;99.90;;;;;;5010801;28;20184;-78
2023/03/10 09:23:13;;;;;;;2.90;0.80;;;19.70;99.90;;;;;;5009591;28;20951;-78
2023/03/10 09:25:39;;;;;;;2.43;0.70;;;19.70;99.90;;;;;;5010455;28;20635;-78
2023/03/10 09:28:06;;;;;;;6.57;1.10;;;19.60;99.90;;;;;;5009499;28;20625;-77
2023/03/10 09:30:37;;;;;;;2.90;0.90;;;19.50;99.90;;;;;;5010219;28;20589;-77
2023/03/10 09:33:04;;;;;;;2.77;0.80;;;19.40;99.90;;;;;;5007343;28;20636;-78
2023/03/10 09:35:30;;;;;;;5.10;1.27;;;19.30;99.90;;;;;;5010145;28;20589;-78
2023/03/10 09:37:55;;;;;;;3.57;1.40;;;19.30;99.90;;;;;;5011111;28;21398;-77
2023/03/10 09:40:22;;;;;;;4.50;0.70;;;19.30;99.90;;;;;;5009689;28;20177;-76
2023/03/10 09:43:00;;;;;;;4.60;0.80;;;19.30;99.90;;;;;;5007766;28;20206;-77
2023/03/10 09:45:44;;;;;;;2.40;1.10;;;19.30;99.90;;;;;;5018146;28;21092;-77
2023/03/10 09:48:37;;;;;;;1.90;0.73;;;19.40;99.90;;;;;;5010603;28;20673;-77
2023/03/10 09:51:13;;;;;;;4.00;0.70;;;19.50;99.90;;;;;;5013885;28;20584;-77
2023/03/10 09:54:08;;;;;;;5.93;1.23;;;19.40;99.90;;;;;;5009400;28;20639;-77
2023/03/10 09:56:35;;;;;;;2.73;0.70;;;19.40;99.90;;;;;;5009609;28;20694;-77
2023/03/10 09:59:00;;;;;;;2.73;0.80;;;19.40;99.90;;;;;;5006479;28;21149;-78
2023/03/10 10:01:29;;;;;;;3.83;0.73;;;19.60;99.90;;;;;;4989863;28;20593;-77
2023/03/10 10:04:04;;;;;;;3.23;0.70;;;19.80;99.90;;;;;;4997805;28;21001;-78
2023/03/10 10:06:33;;;;;;;4.17;0.80;;;19.80;99.90;;;;;;5010609;28;20667;-77
2023/03/10 10:09:06;;;;;;;2.63;0.90;;;19.90;99.90;;;;;;5013530;28;20640;-78
2023/03/10 10:11:35;;;;;;;3.67;0.80;;;20.00;99.90;;;;;;5030540;28;20599;-78
2023/03/10 10:14:22;;;;;;;5.07;0.90;;;20.00;99.90;;;;;;5031322;28;20572;-81
2023/03/10 10:16:57;;;;;;;2.17;0.70;;;20.00;99.90;;;;;;5031524;28;20581;-80
2023/03/10 10:19:25;;;;;;;3.60;0.83;;;19.90;99.90;;;;;;5028882;28;20607;-78
2023/03/10 10:22:18;;;;;;;2.70;0.63;;;19.70;99.90;;;;;;5025733;28;20584;-79
2023/03/10 10:25:15;;;;;;;1.83;0.80;;;19.50;99.90;;;;;;5029672;28;20644;-77
2023/03/10 10:27:44;;;;;;;2.07;0.60;;;19.40;99.90;;;;;;5032053;28;20683;-78
2023/03/10 10:30:36;;;;;;;2.43;0.70;;;19.40;99.90;;;;;;5031125;28;20623;-78
2023/03/10 10:33:08;;;;;;;1.70;0.70;;;19.20;99.90;;;;;;5028582;28;20584;-78
2023/03/10 10:35:36;;;;;;;4.80;0.80;;;19.00;99.90;;;;;;5003136;28;20596;-78
2023/03/10 10:38:10;;;;;;;3.97;0.73;;;18.90;99.90;;;;;;5009199;28;20683;-77
2023/03/10 10:40:48;;;;;;;1.97;0.60;;;18.80;99.90;;;;;;5011100;28;20561;-78
2023/03/10 10:43:19;;;;;;;2.53;0.63;;;18.60;99.90;;;;;;5008362;28;21553;-78
2023/03/10 10:45:53;;;;;;;1.30;0.63;;;18.50;99.90;;;;;;5009490;28;20601;-77
2023/03/10 10:48:50;;;;;;;1.33;0.50;;;18.40;99.90;;;;;;5009451;28;20608;-78
2023/03/10 10:51:27;;;;;;;2.13;0.50;;;18.30;99.90;;;;;;4997060;28;20598;-80
2023/03/10 10:53:55;;;;;;;4.10;0.70;;;18.20;99.90;;;;;;5009380;28;20589;-79
2023/03/10 10:56:23;;;;;;;1.80;0.60;;;18.10;99.90;;;;;;5009092;28;20623;-79
2023/03/10 10:59:04;;;;;;;4.40;0.80;;;18.00;99.90;;;;;;5009613;28;20661;-78
2023/03/10 11:01:50;;;;;;;1.90;0.60;;;17.80;99.90;;;;;;4978527;28;20584;-77
2023/03/10 11:04:16;;;;;;;2.33;0.70;;;17.60;99.90;;;;;;5012965;28;20640;-78
2023/03/10 11:06:41;;;;;;;1.80;0.60;;;17.50;99.90;;;;;;5011087;28;20590;-78
2023/03/10 11:09:22;;;;;;;2.10;0.70;;;17.40;99.90;;;;;;5007296;28;20202;-77
2023/03/10 11:12:00;;;;;;;3.30;1.10;;;17.20;99.90;;;;;;4977075;28;20248;-78
2023/03/10 11:14:39;;;;;;;2.70;0.97;;;17.10;99.90;;;;;;5013675;28;20589;-78
2023/03/10 11:17:11;;;;;;;3.37;0.93;;;17.00;99.90;;;;;;5006352;28;20585;-77
2023/03/10 11:19:57;;;;;;;3.17;0.90;;;16.80;99.90;;;;;;5011500;28;20629;-78
2023/03/10 11:22:32;;;;;;;2.97;0.60;;;16.70;99.90;;;;;;5017055;28;20581;-78
2023/03/10 11:25:00;;;;;;;1.40;0.63;;;16.50;99.90;;;;;;5013003;28;20588;-77
2023/03/10 11:27:49;;;;;;;1.60;0.60;;;16.40;99.90;;;;;;5013093;28;20577;-77
2023/03/10 11:30:36;;;;;;;1.73;0.60;;;16.20;99.90;;;;;;5011454;28;20597;-78
2023/03/10 11:33:25;;;;;;;2.43;0.70;;;16.10;99.90;;;;;;5005777;28;21172;-78
2023/03/10 11:35:58;;;;;;;1.63;0.50;;;16.00;99.90;;;;;;5011590;28;20612;-77
2023/03/10 11:38:41;;;;;;;2.37;0.60;;;15.80;99.90;;;;;;5011704;28;20628;-77
2023/03/10 11:41:14;;;;;;;1.50;0.53;;;15.70;99.90;;;;;;4993825;28;20975;-77
2023/03/10 11:44:09;;;;;;;1.50;0.53;;;15.50;99.90;;;;;;5010892;28;20651;-78
2023/03/10 11:46:43;;;;;;;2.43;0.53;;;15.30;99.90;;;;;;5006498;28;21226;-79
2023/03/10 11:49:16;;;;;;;2.63;0.60;;;15.10;99.90;;;;;;5012851;28;20612;-78
2023/03/10 11:51:46;;;;;;;4.10;0.60;;;15.00;99.90;;;;;;5011947;28;20980;-76
2023/03/10 11:54:24;;;;;;;2.10;0.60;;;14.80;99.90;;;;;;5011969;28;20577;-78
2023/03/10 11:56:50;;;;;;;2.10;0.53;;;14.50;99.90;;;;;;4995762;28;20727;-77
2023/03/10 11:59:27;;;;;;;1.70;0.60;;;14.40;99.90;;;;;;5012557;28;21024;-77
2023/03/10 12:01:59;;;;;;;4.00;0.70;;;14.20;99.90;;;;;;5011646;28;20589;-78
2023/03/10 12:04:47;;;;;;;3.20;0.67;;;14.00;99.90;;;;;;5011867;28;20671;-78
2023/03/10 12:07:16;;;;;;;3.83;1.00;;;13.80;99.90;;;;;;5011746;28;20573;-77
2023/03/10 12:09:49;;;;;;;1.73;0.60;;;13.70;99.90;;;;;;5011822;28;20621;-77
2023/03/10 12:12:25;;;;;;;2.73;0.83;;;13.70;99.90;;;;;;5010333;28;20574;-76
2023/03/10 12:14:52;;;;;;;2.67;1.03;;;13.60;99.90;;;;;;5012754;28;20676;-76
2023/03/10 12:17:18;;;;;;;4.77;1.10;;;13.60;99.90;;;;;;5011067;28;20604;-76
2023/03/10 12:20:12;;;;;;;3.30;0.83;;;13.60;99.90;;;;;;5012396;28;20593;-75
2023/03/10 12:22:41;;;;;;;2.73;1.00;;;13.60;99.90;;;;;;4992504;28;20960;-76
2023/03/10 12:25:27;;;;;;;2.57;1.00;;;13.50;99.90;;;;;;4975468;28;20627;-76
2023/03/10 12:28:31;;;;;;;2.30;0.87;;;13.50;99.90;;;;;;4992319;28;21041;-77
2023/03/10 12:31:05;;;;;;;1.80;1.10;;;13.40;99.90;;;;;;4991714;28;20918;-76
2023/03/10 12:33:37;;;;;;;3.80;1.43;;;13.40;99.90;;;;;;5007214;28;20644;-78
2023/03/10 12:36:08;;;;;;;1.67;1.00;;;13.40;99.90;;;;;;4988604;28;20613;-78
2023/03/10 12:38:53;;;;;;;1.80;1.00;;;13.40;99.90;;;;;;5012106;28;20644;-78
2023/03/10 12:41:58;;;;;;;1.90;0.70;;;13.40;99.90;;;;;;5012138;28;20585;-77
2023/03/10 12:44:45;;;;;;;2.00;0.90;;;13.30;99.90;;;;;;5023072;28;20676;-77
2023/03/10 12:47:23;;;;;;;2.23;0.80;;;13.30;99.90;;;;;;5009963;28;20608;-76
2023/03/10 12:49:51;;;;;;;1.73;0.70;;;13.20;99.90;;;;;;4992853;28;20647;-77
2023/03/10 12:52:39;;;;;;;2.50;0.73;;;13.20;99.90;;;;;;5010645;28;21133;-76
2023/03/10 12:55:20;;;;;;;1.87;0.70;;;13.10;99.90;;;;;;5011719;28;20566;-77
2023/03/10 12:58:10;;;;;;;1.80;0.83;;;13.10;99.90;;;;;;5011928;28;20671;-77
2023/03/10 13:00:42;;;;;;;2.50;0.80;;;13.00;99.90;;;;;;5005868;28;20594;-77
2023/03/10 13:03:25;;;;;;;2.13;0.77;;;13.10;99.90;;;;;;5010482;28;20636;-78
2023/03/10 13:06:10;;;;;;;1.43;0.60;;;13.10;99.90;;;;;;5010297;28;21018;-77